Time;durP1;ratioP1;P1;durP2;ratioP2;P2;SDS_P1;SDS_P2;PMS_P1;PMS_P2;Temp;Humidity;BMP_temperature;BMP_pressure;BME280_temperature;BME280_humidity;BME280_pressure;Samples;Min_cycle;Max_cycle;Signal;HPM_P1;HPM_P2
2020/12/06 00:02:08;;;;;;;27.80;14.27;;;5.40;93.60;;;;;;5052278;28;20210;-68
2020/12/06 00:04:34;;;;;;;25.92;14.93;;;5.50;93.70;;;;;;5051766;28;20277;-69
2020/12/06 00:07:00;;;;;;;28.80;15.30;;;5.40;93.70;;;;;;5048390;28;20215;-69
2020/12/06 00:09:26;;;;;;;21.30;14.65;;;5.40;93.70;;;;;;5052896;28;20927;-69
2020/12/06 00:11:58;;;;;;;24.63;14.40;;;5.30;93.80;;;;;;5047169;28;20692;-68
2020/12/06 00:14:25;;;;;;;24.15;14.80;;;5.30;93.90;;;;;;5047645;28;20239;-69
2020/12/06 00:16:52;;;;;;;27.30;14.05;;;5.20;93.90;;;;;;5054066;28;20210;-69
2020/12/06 00:19:18;;;;;;;22.45;14.38;;;5.20;94.00;;;;;;5048296;28;20621;-68
2020/12/06 00:21:45;;;;;;;24.63;13.98;;;5.20;94.00;;;;;;5047161;28;20208;-68
2020/12/06 00:24:11;;;;;;;26.70;14.82;;;5.20;94.00;;;;;;5046487;28;20603;-68
2020/12/06 00:26:37;;;;;;;26.25;15.45;;;5.20;93.90;;;;;;5054980;28;20223;-68
2020/12/06 00:29:05;;;;;;;23.63;14.02;;;5.20;94.00;;;;;;5045251;28;20669;-68
2020/12/06 00:31:31;;;;;;;22.52;14.93;;;5.10;94.00;;;;;;5048130;28;20257;-69
2020/12/06 00:33:57;;;;;;;27.13;15.57;;;5.10;94.00;;;;;;5047024;28;20203;-69
2020/12/06 00:36:24;;;;;;;27.15;16.33;;;5.10;94.10;;;;;;5049382;28;20204;-69
2020/12/06 00:38:50;;;;;;;26.17;15.35;;;5.10;94.10;;;;;;5047991;28;20207;-68
2020/12/06 00:41:17;;;;;;;27.70;16.55;;;5.10;94.10;;;;;;5052074;28;20319;-69
2020/12/06 00:43:44;;;;;;;31.00;17.73;;;5.10;94.10;;;;;;5046826;28;20205;-70
2020/12/06 00:46:12;;;;;;;29.13;18.50;;;5.10;94.10;;;;;;5062511;28;20219;-68
2020/12/06 00:48:38;;;;;;;32.38;17.63;;;5.00;94.10;;;;;;5044881;28;20204;-69
2020/12/06 00:51:06;;;;;;;25.88;17.42;;;5.00;94.20;;;;;;5046963;28;20199;-68
2020/12/06 00:53:36;;;;;;;33.20;18.05;;;5.00;94.20;;;;;;5045687;28;20203;-68
2020/12/06 00:56:03;;;;;;;30.23;18.70;;;5.00;94.30;;;;;;5046495;28;20191;-68
2020/12/06 00:58:31;;;;;;;39.65;18.83;;;5.00;94.30;;;;;;5063160;28;20634;-68
2020/12/06 01:00:57;;;;;;;32.50;17.80;;;5.00;94.40;;;;;;5047458;28;20230;-69
2020/12/06 01:03:24;;;;;;;32.25;18.73;;;5.00;94.40;;;;;;5045752;28;20256;-69
2020/12/06 01:05:50;;;;;;;31.35;18.40;;;5.00;94.40;;;;;;5047198;28;20541;-69
2020/12/06 01:08:16;;;;;;;31.30;17.83;;;4.90;94.50;;;;;;5046147;28;20203;-69
2020/12/06 01:10:43;;;;;;;32.25;18.98;;;4.90;94.60;;;;;;5046546;28;20206;-68
2020/12/06 01:13:09;;;;;;;31.98;18.38;;;4.80;94.60;;;;;;5047465;28;20236;-69
2020/12/06 01:15:35;;;;;;;29.40;17.17;;;4.80;94.70;;;;;;5047446;28;20227;-68
2020/12/06 01:18:02;;;;;;;29.85;17.38;;;4.70;94.70;;;;;;5048040;28;20203;-69
2020/12/06 01:20:29;;;;;;;31.17;18.00;;;4.70;94.90;;;;;;5048656;28;20681;-68
2020/12/06 01:22:55;;;;;;;26.65;16.80;;;4.60;95.00;;;;;;5047736;28;20211;-68
2020/12/06 01:25:21;;;;;;;29.98;16.80;;;4.60;95.10;;;;;;5046033;28;20203;-68
2020/12/06 01:27:49;;;;;;;30.50;16.10;;;4.50;95.20;;;;;;5047546;28;20214;-68
2020/12/06 01:30:15;;;;;;;24.50;15.57;;;4.50;95.20;;;;;;5046892;28;20231;-68
2020/12/06 01:32:41;;;;;;;26.70;15.38;;;4.50;95.30;;;;;;5044555;28;20289;-68
2020/12/06 01:35:07;;;;;;;27.52;15.23;;;4.50;95.40;;;;;;5049100;28;20280;-69
2020/12/06 01:37:35;;;;;;;23.40;15.00;;;4.50;95.40;;;;;;5047716;28;20281;-68
2020/12/06 01:40:01;;;;;;;24.33;14.88;;;4.40;95.40;;;;;;5045888;28;20203;-68
2020/12/06 01:42:27;;;;;;;24.20;14.65;;;4.40;95.50;;;;;;5050049;28;20250;-70
2020/12/06 01:44:57;;;;;;;24.75;15.73;;;4.40;95.50;;;;;;5047292;28;20730;-69
2020/12/06 01:47:23;;;;;;;24.85;15.77;;;4.40;95.60;;;;;;5047664;28;20242;-68
2020/12/06 01:49:50;;;;;;;25.45;13.98;;;4.40;95.60;;;;;;5051517;28;20234;-68
2020/12/06 01:52:16;;;;;;;24.45;14.35;;;4.40;95.60;;;;;;5045482;28;20199;-68
2020/12/06 01:54:44;;;;;;;26.08;15.32;;;4.30;95.60;;;;;;5045620;28;20269;-69
2020/12/06 01:57:10;;;;;;;24.77;14.35;;;4.30;95.70;;;;;;5046805;28;20214;-69
2020/12/06 01:59:37;;;;;;;24.58;14.00;;;4.30;95.70;;;;;;5047625;28;20202;-68
2020/12/06 02:02:04;;;;;;;23.45;14.48;;;4.30;96.10;;;;;;5052178;28;20199;-68
2020/12/06 02:04:32;;;;;;;22.90;14.60;;;4.30;95.80;;;;;;5045862;28;20207;-68
2020/12/06 02:06:59;;;;;;;21.95;14.35;;;4.30;95.80;;;;;;5048454;28;20259;-69
2020/12/06 02:09:28;;;;;;;24.15;14.25;;;4.30;95.80;;;;;;5045097;28;20246;-68
2020/12/06 02:11:55;;;;;;;22.77;14.75;;;4.30;95.80;;;;;;5045782;28;20329;-69
2020/12/06 02:14:22;;;;;;;23.38;14.55;;;4.40;95.80;;;;;;5043411;28;20219;-69
2020/12/06 02:16:52;;;;;;;21.20;13.77;;;4.30;95.80;;;;;;5045776;28;20219;-69
2020/12/06 02:19:18;;;;;;;24.33;14.52;;;4.30;95.80;;;;;;5059118;28;20249;-68
2020/12/06 02:21:46;;;;;;;23.42;13.80;;;4.20;95.80;;;;;;5046073;28;20195;-68
2020/12/06 02:24:14;;;;;;;24.13;13.93;;;4.20;95.90;;;;;;5047695;28;20699;-68
2020/12/06 02:26:42;;;;;;;25.85;14.27;;;4.10;96.00;;;;;;5045456;28;20300;-69
2020/12/06 02:29:08;;;;;;;22.75;13.82;;;4.10;96.00;;;;;;5043960;28;20380;-69
2020/12/06 02:31:35;;;;;;;20.63;13.38;;;4.10;96.10;;;;;;5046154;28;20245;-68
2020/12/06 02:34:01;;;;;;;23.38;13.05;;;4.10;96.10;;;;;;5044536;28;20237;-68
2020/12/06 02:36:28;;;;;;;22.55;12.40;;;4.10;96.20;;;;;;5048540;28;20202;-69
2020/12/06 02:38:55;;;;;;;23.38;13.35;;;4.10;96.20;;;;;;5047855;28;20200;-68
2020/12/06 02:41:21;;;;;;;22.60;12.95;;;4.00;96.30;;;;;;5045550;28;20227;-69
2020/12/06 02:43:47;;;;;;;20.98;12.35;;;4.00;96.40;;;;;;5045064;28;20214;-68
2020/12/06 02:46:14;;;;;;;19.10;13.18;;;3.90;96.40;;;;;;5060302;28;20218;-68
2020/12/06 02:48:41;;;;;;;21.30;13.48;;;3.90;96.50;;;;;;5044451;28;20199;-69
2020/12/06 02:51:07;;;;;;;20.90;11.85;;;3.90;96.60;;;;;;5045025;28;20211;-69
2020/12/06 02:53:33;;;;;;;19.85;13.38;;;3.90;96.60;;;;;;5044576;28;20223;-69
2020/12/06 02:56:00;;;;;;;20.38;13.70;;;4.00;96.70;;;;;;5048216;28;20206;-69
2020/12/06 02:58:27;;;;;;;23.27;13.60;;;4.00;96.70;;;;;;5043336;28;20249;-69
2020/12/06 03:00:53;;;;;;;20.45;12.25;;;4.00;96.70;;;;;;5045378;28;20234;-69
2020/12/06 03:03:19;;;;;;;23.52;13.07;;;4.00;96.70;;;;;;5045112;28;20577;-68
2020/12/06 03:05:45;;;;;;;20.85;13.27;;;4.00;96.70;;;;;;5043294;28;20715;-69
2020/12/06 03:08:12;;;;;;;23.13;13.10;;;4.00;96.70;;;;;;5044132;28;20199;-69
2020/12/06 03:10:38;;;;;;;24.92;14.35;;;4.00;96.80;;;;;;5046669;28;20219;-69
2020/12/06 03:13:05;;;;;;;23.35;14.07;;;4.00;96.80;;;;;;5044653;28;20203;-69
2020/12/06 03:15:31;;;;;;;22.98;13.07;;;4.00;96.80;;;;;;5044124;28;20196;-69
2020/12/06 03:17:58;;;;;;;21.77;12.90;;;4.00;96.80;;;;;;5045006;28;20253;-69
2020/12/06 03:20:24;;;;;;;20.27;13.52;;;4.10;96.90;;;;;;5047800;28;20228;-70
2020/12/06 03:22:50;;;;;;;28.77;13.77;;;4.10;96.90;;;;;;5048396;28;20253;-68
2020/12/06 03:25:17;;;;;;;23.77;13.43;;;4.20;97.20;;;;;;5048914;28;20199;-68
2020/12/06 03:27:43;;;;;;;23.40;13.45;;;4.10;96.80;;;;;;5055122;28;20230;-69
2020/12/06 03:30:10;;;;;;;24.17;14.07;;;4.10;96.80;;;;;;5052518;28;20214;-69
2020/12/06 03:32:36;;;;;;;23.50;14.60;;;4.20;96.80;;;;;;5048711;28;20737;-69
2020/12/06 03:35:03;;;;;;;28.00;16.02;;;4.20;96.80;;;;;;5051128;28;20616;-69
2020/12/06 03:37:29;;;;;;;31.23;17.92;;;4.10;96.80;;;;;;5048226;28;20199;-69
2020/12/06 03:39:55;;;;;;;35.40;18.23;;;4.10;96.80;;;;;;5049644;28;20227;-69
2020/12/06 03:42:21;;;;;;;31.98;18.98;;;4.10;96.90;;;;;;5046657;28;20266;-69
2020/12/06 03:44:48;;;;;;;28.08;16.45;;;4.10;96.90;;;;;;5048615;28;20215;-69
2020/12/06 03:47:15;;;;;;;27.23;17.17;;;4.00;97.30;;;;;;5046612;28;20231;-69
2020/12/06 03:49:41;;;;;;;25.77;16.20;;;3.90;97.00;;;;;;5048493;28;20226;-70
2020/12/06 03:52:08;;;;;;;29.00;17.52;;;3.90;97.10;;;;;;5046940;28;20253;-70
2020/12/06 03:54:34;;;;;;;32.72;17.42;;;3.90;97.20;;;;;;5050182;28;20207;-69
2020/12/06 03:57:00;;;;;;;30.73;17.75;;;3.90;97.30;;;;;;5048943;28;20308;-69
2020/12/06 03:59:26;;;;;;;32.45;17.25;;;3.90;97.30;;;;;;5045602;28;20274;-69
2020/12/06 04:01:53;;;;;;;32.33;17.58;;;3.90;97.40;;;;;;5052547;28;20207;-69
2020/12/06 04:04:20;;;;;;;29.75;17.85;;;3.90;97.40;;;;;;5047964;28;20195;-69
2020/12/06 04:06:46;;;;;;;30.02;17.58;;;3.90;97.40;;;;;;5047274;28;20224;-69
2020/12/06 04:09:12;;;;;;;27.88;17.52;;;3.90;97.40;;;;;;5047706;28;20268;-69
2020/12/06 04:11:39;;;;;;;27.40;17.70;;;4.00;97.40;;;;;;5064246;28;20211;-69
2020/12/06 04:14:05;;;;;;;28.60;17.83;;;4.00;97.40;;;;;;5046631;28;20402;-68
2020/12/06 04:16:31;;;;;;;31.73;17.67;;;3.90;97.30;;;;;;5054491;28;20248;-68
2020/12/06 04:18:57;;;;;;;25.42;16.45;;;3.90;97.40;;;;;;5048032;28;20199;-69
2020/12/06 04:21:25;;;;;;;26.42;16.52;;;3.90;97.40;;;;;;5052345;28;20240;-69
2020/12/06 04:23:51;;;;;;;24.98;16.52;;;3.90;97.50;;;;;;5048762;28;20219;-68
2020/12/06 04:26:17;;;;;;;28.05;17.23;;;3.90;97.50;;;;;;5049644;28;20220;-69
2020/12/06 04:28:44;;;;;;;28.73;17.42;;;3.90;97.60;;;;;;5072201;28;20288;-69
2020/12/06 04:31:10;;;;;;;30.65;17.83;;;3.90;97.60;;;;;;5058004;28;20206;-69
2020/12/06 04:33:36;;;;;;;30.50;17.45;;;3.90;97.60;;;;;;5046835;28;20203;-68
2020/12/06 04:36:02;;;;;;;28.48;17.10;;;3.90;97.70;;;;;;5049929;28;20571;-69
2020/12/06 04:38:30;;;;;;;29.85;18.67;;;3.90;97.70;;;;;;5046362;28;20203;-68
2020/12/06 04:40:56;;;;;;;33.03;19.00;;;3.90;97.80;;;;;;5047798;28;20227;-69
2020/12/06 04:43:22;;;;;;;28.35;18.10;;;3.90;97.80;;;;;;5047471;28;20207;-70
2020/12/06 04:45:49;;;;;;;32.00;19.25;;;3.90;97.90;;;;;;5047496;28;20289;-68
2020/12/06 04:48:24;;;;;;;27.15;18.45;;;3.80;97.90;;;;;;5046821;28;20239;-68
2020/12/06 04:50:55;;;;;;;29.50;18.98;;;3.90;98.00;;;;;;5045679;28;20566;-69
2020/12/06 04:53:27;;;;;;;32.15;19.50;;;3.90;98.00;;;;;;5047453;28;20652;-70
2020/12/06 04:55:57;;;;;;;30.30;19.73;;;3.90;98.00;;;;;;5048056;28;20561;-69
2020/12/06 04:58:26;;;;;;;30.90;18.35;;;3.90;98.00;;;;;;5048061;28;20233;-69
2020/12/06 05:00:52;;;;;;;31.20;18.70;;;4.00;98.00;;;;;;5063136;28;20207;-70
2020/12/06 05:03:23;;;;;;;30.05;17.63;;;3.90;98.00;;;;;;5046627;28;20210;-69
2020/12/06 05:05:50;;;;;;;30.75;18.27;;;3.90;98.00;;;;;;5048404;28;20688;-68
2020/12/06 05:08:18;;;;;;;35.38;19.55;;;3.90;98.10;;;;;;5053501;28;20269;-69
2020/12/06 05:10:46;;;;;;;29.80;19.30;;;3.90;98.20;;;;;;5046341;28;20273;-68
2020/12/06 05:13:14;;;;;;;30.65;19.63;;;3.90;98.20;;;;;;5053368;28;20214;-69
2020/12/06 05:15:41;;;;;;;34.50;20.52;;;3.90;98.30;;;;;;5051113;28;20578;-69
2020/12/06 05:18:07;;;;;;;36.22;19.45;;;3.90;98.40;;;;;;5047992;28;20734;-68
2020/12/06 05:20:35;;;;;;;32.80;20.10;;;3.90;98.40;;;;;;5048087;28;20199;-69
2020/12/06 05:23:01;;;;;;;31.55;20.50;;;3.90;98.50;;;;;;5047074;28;20222;-68
2020/12/06 05:25:27;;;;;;;32.00;20.13;;;4.00;98.50;;;;;;5046276;28;20203;-68
2020/12/06 05:27:54;;;;;;;29.63;19.45;;;4.00;98.60;;;;;;5046925;28;20280;-68
2020/12/06 05:30:21;;;;;;;29.63;19.67;;;4.00;98.60;;;;;;5046967;28;20241;-68
2020/12/06 05:32:48;;;;;;;30.58;19.45;;;4.10;98.60;;;;;;5051136;28;20267;-68
2020/12/06 05:35:14;;;;;;;33.22;20.52;;;4.10;98.60;;;;;;5046939;28;20226;-68
2020/12/06 05:37:42;;;;;;;32.60;19.15;;;4.10;98.60;;;;;;5048640;28;20198;-68
2020/12/06 05:40:10;;;;;;;33.25;20.08;;;4.20;98.60;;;;;;5047240;28;20210;-68
2020/12/06 05:42:38;;;;;;;35.35;19.50;;;4.20;98.60;;;;;;5050757;28;20749;-68
2020/12/06 05:45:05;;;;;;;37.92;20.65;;;4.20;98.60;;;;;;5045820;28;20302;-68
2020/12/06 05:47:34;;;;;;;31.23;19.50;;;4.20;98.60;;;;;;5049959;28;20621;-68
2020/12/06 05:50:01;;;;;;;32.50;20.67;;;4.20;98.60;;;;;;5046177;28;20215;-68
2020/12/06 05:52:28;;;;;;;32.10;20.23;;;4.20;98.60;;;;;;5045994;28;20648;-68
2020/12/06 05:54:56;;;;;;;34.22;19.08;;;4.20;98.70;;;;;;5047147;28;20837;-69
2020/12/06 05:57:25;;;;;;;31.25;20.13;;;4.20;98.70;;;;;;5047218;28;20254;-69
2020/12/06 05:59:55;;;;;;;36.08;21.08;;;4.20;98.80;;;;;;5044537;28;20723;-68
2020/12/06 06:02:22;;;;;;;30.52;20.75;;;4.30;98.80;;;;;;5046483;28;20222;-69
2020/12/06 06:04:50;;;;;;;32.08;20.83;;;4.30;98.80;;;;;;5046252;28;20652;-68
2020/12/06 06:07:20;;;;;;;32.45;20.10;;;4.30;98.80;;;;;;5046311;28;20319;-69
2020/12/06 06:09:49;;;;;;;35.55;20.65;;;4.40;98.80;;;;;;5044804;28;20207;-68
2020/12/06 06:12:30;;;;;;;34.50;20.98;;;4.40;98.70;;;;;;5044574;28;20207;-69
2020/12/06 06:14:59;;;;;;;32.95;21.05;;;4.40;98.70;;;;;;5043551;28;20260;-68
2020/12/06 06:17:26;;;;;;;33.20;20.45;;;4.50;98.70;;;;;;5068816;28;20203;-65
2020/12/06 06:19:54;;;;;;;31.55;19.83;;;4.50;98.70;;;;;;5044918;28;20207;-65
2020/12/06 06:22:25;;;;;;;33.92;21.45;;;4.50;99.10;;;;;;5046485;28;20207;-64
2020/12/06 06:24:53;;;;;;;32.50;20.02;;;4.50;98.80;;;;;;5045062;28;20996;-65
2020/12/06 06:27:19;;;;;;;33.83;20.90;;;4.50;98.80;;;;;;5045293;28;20589;-66
2020/12/06 06:29:45;;;;;;;32.85;21.88;;;4.60;98.80;;;;;;5046027;28;20218;-65
2020/12/06 06:32:12;;;;;;;31.38;20.83;;;4.60;98.80;;;;;;5045260;28;20215;-65
2020/12/06 06:34:39;;;;;;;33.08;19.75;;;4.60;98.80;;;;;;5046312;28;20253;-65
2020/12/06 06:37:17;;;;;;;31.08;20.00;;;4.60;98.80;;;;;;5051377;28;20199;-64
2020/12/06 06:39:44;;;;;;;32.40;20.08;;;4.60;98.80;;;;;;5045666;28;20207;-66
2020/12/06 06:42:13;;;;;;;31.10;19.90;;;4.60;98.90;;;;;;5043924;28;20242;-65
2020/12/06 06:44:42;;;;;;;32.95;19.75;;;4.60;98.90;;;;;;5045537;28;20218;-67
2020/12/06 06:47:09;;;;;;;30.55;20.15;;;4.60;98.90;;;;;;5044487;28;20269;-65
2020/12/06 06:49:50;;;;;;;32.47;19.73;;;4.60;98.90;;;;;;5045330;28;20219;-65
2020/12/06 06:52:18;;;;;;;33.42;20.95;;;4.70;99.00;;;;;;5044480;28;20207;-65
2020/12/06 06:54:48;;;;;;;30.75;19.77;;;4.70;99.00;;;;;;5047026;28;20675;-65
2020/12/06 06:57:16;;;;;;;31.40;20.65;;;4.70;99.00;;;;;;5044539;28;20716;-65
2020/12/06 06:59:45;;;;;;;30.00;19.33;;;4.70;99.00;;;;;;5045350;28;20199;-66
2020/12/06 07:02:25;;;;;;;33.10;20.58;;;4.70;99.00;;;;;;5044326;28;20704;-66
2020/12/06 07:04:52;;;;;;;34.13;21.17;;;4.70;99.00;;;;;;5044695;28;20321;-68
2020/12/06 07:07:38;;;;;;;31.95;19.55;;;4.70;99.00;;;;;;5044779;28;20669;-69
2020/12/06 07:10:05;;;;;;;32.45;20.75;;;4.70;99.00;;;;;;5043056;28;20199;-68
2020/12/06 07:12:40;;;;;;;32.42;19.98;;;4.70;99.00;;;;;;5044807;28;20203;-68
2020/12/06 07:15:10;;;;;;;32.42;19.52;;;4.80;99.00;;;;;;5044022;28;20303;-68
2020/12/06 07:17:37;;;;;;;35.03;21.95;;;4.70;99.00;;;;;;5046938;28;20214;-67
2020/12/06 07:20:05;;;;;;;34.53;22.33;;;4.80;99.10;;;;;;5045418;28;20277;-67
2020/12/06 07:22:32;;;;;;;32.63;21.48;;;4.80;99.10;;;;;;5045570;28;20234;-68
2020/12/06 07:24:59;;;;;;;38.75;22.27;;;4.80;99.10;;;;;;5045543;28;20214;-69
2020/12/06 07:27:25;;;;;;;33.97;20.83;;;4.80;99.20;;;;;;5044781;28;20280;-71
2020/12/06 07:29:52;;;;;;;34.40;22.02;;;4.80;99.20;;;;;;5044790;28;20203;-72
2020/12/06 07:32:20;;;;;;;33.33;22.40;;;4.80;99.20;;;;;;5043505;28;20204;-71
2020/12/06 07:34:46;;;;;;;32.92;21.20;;;4.80;99.30;;;;;;5044535;28;20198;-71
2020/12/06 07:37:14;;;;;;;37.13;22.92;;;4.80;99.30;;;;;;5044615;28;20206;-71
2020/12/06 07:39:44;;;;;;;32.83;22.10;;;4.90;99.30;;;;;;5044534;28;20219;-71
2020/12/06 07:42:17;;;;;;;35.85;21.27;;;4.90;99.30;;;;;;5045325;28;20318;-71
2020/12/06 07:44:47;;;;;;;33.25;21.27;;;4.90;99.30;;;;;;5043609;28;20745;-70
2020/12/06 07:47:14;;;;;;;33.47;22.23;;;5.00;99.40;;;;;;5045283;28;20226;-71
2020/12/06 07:49:46;;;;;;;31.60;21.85;;;4.90;99.30;;;;;;5043415;28;20680;-69
2020/12/06 07:52:17;;;;;;;31.70;20.83;;;5.00;99.40;;;;;;5043661;28;20333;-69
2020/12/06 07:54:54;;;;;;;31.58;20.88;;;5.00;99.40;;;;;;5044261;28;20571;-70
2020/12/06 07:57:42;;;;;;;30.92;20.70;;;5.10;99.40;;;;;;5045406;28;20668;-71
2020/12/06 08:00:11;;;;;;;30.45;20.63;;;5.10;99.40;;;;;;5043785;28;20253;-70
2020/12/06 08:02:41;;;;;;;33.67;21.40;;;5.00;99.40;;;;;;5045022;28;20211;-70
2020/12/06 08:05:10;;;;;;;35.38;21.85;;;5.10;99.50;;;;;;5043879;28;20211;-70
2020/12/06 08:07:39;;;;;;;37.88;22.90;;;5.10;99.50;;;;;;5047773;28;20273;-70
2020/12/06 08:10:09;;;;;;;31.17;21.63;;;5.10;99.50;;;;;;5045274;28;20214;-68
2020/12/06 08:12:41;;;;;;;34.00;22.23;;;5.10;99.50;;;;;;5048082;28;20203;-69
2020/12/06 08:15:07;;;;;;;30.80;21.50;;;5.10;99.50;;;;;;5048075;28;20218;-72
2020/12/06 08:17:47;;;;;;;35.30;23.05;;;5.20;99.60;;;;;;5048885;28;20195;-73
2020/12/06 08:20:14;;;;;;;35.50;22.02;;;5.10;99.60;;;;;;5065128;28;20652;-73
2020/12/06 08:22:54;;;;;;;33.35;21.38;;;5.10;99.60;;;;;;5048710;28;20265;-70
2020/12/06 08:25:23;;;;;;;32.72;22.45;;;5.20;99.70;;;;;;5053596;28;20202;-72
2020/12/06 08:27:51;;;;;;;33.70;21.98;;;5.20;99.80;;;;;;5046667;28;20222;-71
2020/12/06 08:30:19;;;;;;;32.95;22.52;;;5.20;99.90;;;;;;5047455;28;20211;-71
2020/12/06 08:32:56;;;;;;;36.65;23.33;;;5.20;99.90;;;;;;5045387;28;20214;-70
2020/12/06 08:35:37;;;;;;;33.15;22.38;;;5.30;99.90;;;;;;5046978;28;20203;-72
2020/12/06 08:38:17;;;;;;;33.65;22.35;;;5.30;99.90;;;;;;5045179;28;20693;-70
2020/12/06 08:41:06;;;;;;;33.33;21.25;;;5.40;99.90;;;;;;5045637;28;20235;-70
2020/12/06 08:43:45;;;;;;;35.22;21.88;;;5.40;99.90;;;;;;5046908;28;20243;-70
2020/12/06 08:46:14;;;;;;;33.10;22.27;;;5.40;99.90;;;;;;5046950;28;20248;-70
2020/12/06 08:48:41;;;;;;;40.00;23.20;;;5.40;99.90;;;;;;5048155;28;20207;-73
2020/12/06 08:51:22;;;;;;;35.53;22.83;;;5.50;99.90;;;;;;5047752;28;20695;-70
2020/12/06 08:53:48;;;;;;;35.60;22.52;;;5.50;99.90;;;;;;5046440;28;20206;-69
2020/12/06 08:56:32;;;;;;;31.38;21.20;;;5.60;99.90;;;;;;5048586;28;20268;-69
2020/12/06 08:59:04;;;;;;;32.28;21.38;;;5.60;99.90;;;;;;5047180;28;20212;-69
2020/12/06 09:01:30;;;;;;;32.92;21.95;;;5.60;99.90;;;;;;5047303;28;20207;-69
2020/12/06 09:03:57;;;;;;;32.97;21.30;;;5.60;99.90;;;;;;5045862;28;20911;-69
2020/12/06 09:06:23;;;;;;;31.65;21.70;;;5.60;99.90;;;;;;5046942;28;20200;-70
2020/12/06 09:08:50;;;;;;;32.15;21.40;;;5.70;99.90;;;;;;5046602;28;20210;-69
2020/12/06 09:11:17;;;;;;;35.08;22.10;;;5.70;99.90;;;;;;5045699;28;20618;-70
2020/12/06 09:13:44;;;;;;;31.35;21.05;;;5.80;99.90;;;;;;5047125;28;20202;-69
2020/12/06 09:16:11;;;;;;;33.17;21.80;;;5.80;99.90;;;;;;5045094;28;20277;-69
2020/12/06 09:18:38;;;;;;;33.47;21.63;;;5.90;99.90;;;;;;5046000;28;20277;-69
2020/12/06 09:21:05;;;;;;;34.42;22.35;;;6.00;99.90;;;;;;5046538;28;20210;-68
2020/12/06 09:23:32;;;;;;;30.13;21.20;;;6.00;99.90;;;;;;5046799;28;20223;-69
2020/12/06 09:26:01;;;;;;;33.65;21.08;;;6.00;99.90;;;;;;5047244;28;20210;-69
2020/12/06 09:28:28;;;;;;;33.45;21.77;;;6.00;99.90;;;;;;5044332;28;20228;-69
2020/12/06 09:30:55;;;;;;;31.55;21.55;;;6.00;99.90;;;;;;5046615;28;20211;-69
2020/12/06 09:33:22;;;;;;;32.13;21.73;;;6.10;99.90;;;;;;5047834;28;20273;-68
2020/12/06 09:35:49;;;;;;;32.00;20.67;;;6.10;99.90;;;;;;5050252;28;20674;-69
2020/12/06 09:38:15;;;;;;;34.38;20.52;;;6.20;99.90;;;;;;5046618;28;20203;-67
2020/12/06 09:40:42;;;;;;;33.22;21.15;;;6.20;99.90;;;;;;5045897;28;20239;-68
2020/12/06 09:43:09;;;;;;;33.60;20.17;;;6.30;99.90;;;;;;5043496;28;20207;-68
2020/12/06 09:45:36;;;;;;;30.95;20.90;;;6.30;99.90;;;;;;5047913;28;20211;-68
2020/12/06 09:48:02;;;;;;;33.83;21.55;;;6.40;99.90;;;;;;5044686;28;20384;-68
2020/12/06 09:50:30;;;;;;;32.05;21.40;;;6.40;99.90;;;;;;5045831;28;20207;-69
2020/12/06 09:52:56;;;;;;;31.65;20.55;;;6.50;99.90;;;;;;5046399;28;20215;-67
2020/12/06 09:55:23;;;;;;;30.95;20.85;;;6.50;99.90;;;;;;5046398;28;20245;-68
2020/12/06 09:57:49;;;;;;;31.08;20.83;;;6.50;99.90;;;;;;5045910;28;20667;-67
2020/12/06 10:00:16;;;;;;;29.83;20.55;;;6.50;99.70;;;;;;5046410;28;20203;-68
2020/12/06 10:02:43;;;;;;;34.80;21.15;;;6.50;99.70;;;;;;5047111;28;20215;-69
2020/12/06 10:05:09;;;;;;;32.17;20.48;;;6.60;99.70;;;;;;5044134;28;20207;-68
2020/12/06 10:07:36;;;;;;;31.48;20.30;;;6.60;99.60;;;;;;5046838;28;20219;-68
2020/12/06 10:10:03;;;;;;;29.88;19.95;;;6.60;99.60;;;;;;5045326;28;20261;-69
2020/12/06 10:12:29;;;;;;;31.08;20.73;;;6.60;99.60;;;;;;5047135;28;20216;-67
2020/12/06 10:14:55;;;;;;;30.75;20.40;;;6.50;99.60;;;;;;5045175;28;20223;-69
2020/12/06 10:17:22;;;;;;;30.05;19.80;;;6.60;99.70;;;;;;5046701;28;20203;-69
2020/12/06 10:19:49;;;;;;;29.25;19.50;;;6.60;99.70;;;;;;5048946;28;20345;-69
2020/12/06 10:22:15;;;;;;;33.90;20.02;;;6.70;99.60;;;;;;5049749;28;20199;-68
2020/12/06 10:24:42;;;;;;;30.92;20.80;;;6.80;99.60;;;;;;5049734;28;20207;-68
2020/12/06 10:27:09;;;;;;;32.95;20.98;;;6.80;99.50;;;;;;5044445;28;20233;-68
2020/12/06 10:29:35;;;;;;;31.27;20.60;;;6.90;99.40;;;;;;5044913;28;20290;-68
2020/12/06 10:32:01;;;;;;;32.10;20.73;;;6.90;99.30;;;;;;5045331;28;21051;-69
2020/12/06 10:34:28;;;;;;;31.75;20.80;;;6.90;99.50;;;;;;5045536;28;20611;-68
2020/12/06 10:36:57;;;;;;;34.08;20.73;;;6.90;99.20;;;;;;5061771;28;20257;-67
2020/12/06 10:39:24;;;;;;;36.03;21.92;;;6.90;99.20;;;;;;5044312;28;20215;-68
2020/12/06 10:41:52;;;;;;;32.00;20.60;;;6.90;99.10;;;;;;5046200;28;20234;-68
2020/12/06 10:44:19;;;;;;;31.75;20.55;;;6.90;99.10;;;;;;5045810;28;20222;-69
2020/12/06 10:46:46;;;;;;;31.10;20.65;;;7.00;99.00;;;;;;5045664;28;20608;-69
2020/12/06 10:49:13;;;;;;;34.13;21.17;;;7.10;99.00;;;;;;5044775;28;20268;-68
2020/12/06 10:51:40;;;;;;;31.33;20.58;;;7.10;98.90;;;;;;5043997;28;20199;-68
2020/12/06 10:54:06;;;;;;;29.27;20.40;;;7.20;98.80;;;;;;5044688;28;20207;-68
2020/12/06 10:56:33;;;;;;;33.85;21.15;;;7.30;98.60;;;;;;5049976;28;20657;-69
2020/12/06 10:59:00;;;;;;;33.55;21.52;;;7.30;98.40;;;;;;5043884;28;20233;-68
2020/12/06 11:01:26;;;;;;;33.53;21.67;;;7.30;98.40;;;;;;5044570;28;20281;-68
2020/12/06 11:03:53;;;;;;;34.78;20.88;;;7.30;98.30;;;;;;5051995;28;20660;-68
2020/12/06 11:06:20;;;;;;;33.58;21.40;;;7.40;98.20;;;;;;5044374;28;20203;-68
2020/12/06 11:08:46;;;;;;;31.75;21.13;;;7.40;98.10;;;;;;5044673;28;20314;-68
2020/12/06 11:11:13;;;;;;;32.92;20.33;;;7.40;97.90;;;;;;5047565;28;20353;-69
2020/12/06 11:13:40;;;;;;;33.50;21.55;;;7.40;97.80;;;;;;5044870;28;20229;-68
2020/12/06 11:16:07;;;;;;;33.60;21.85;;;7.40;97.80;;;;;;5045377;28;20242;-68
2020/12/06 11:18:33;;;;;;;33.53;21.35;;;7.30;97.70;;;;;;5044878;28;20199;-68
2020/12/06 11:21:00;;;;;;;35.80;21.92;;;7.30;97.60;;;;;;5045936;28;20211;-68
2020/12/06 11:23:26;;;;;;;33.33;21.23;;;7.20;97.60;;;;;;5045188;28;20203;-68
2020/12/06 11:25:53;;;;;;;33.88;21.67;;;7.20;97.60;;;;;;5045658;28;20275;-68
2020/12/06 11:28:19;;;;;;;32.63;20.92;;;7.10;97.60;;;;;;5045964;28;20324;-70
2020/12/06 11:30:46;;;;;;;35.72;21.98;;;7.10;97.60;;;;;;5044441;28;20234;-69
2020/12/06 11:33:13;;;;;;;36.28;22.05;;;7.10;97.50;;;;;;5045605;28;20210;-68
2020/12/06 11:35:39;;;;;;;33.25;21.58;;;7.10;97.50;;;;;;5044948;28;20293;-69
2020/12/06 11:38:05;;;;;;;33.42;20.67;;;7.00;97.50;;;;;;5045813;28;20227;-68
2020/12/06 11:40:32;;;;;;;30.23;20.83;;;7.00;97.40;;;;;;5044493;28;20211;-68
2020/12/06 11:42:58;;;;;;;32.90;21.65;;;6.90;97.40;;;;;;5049316;28;20738;-68
2020/12/06 11:45:25;;;;;;;32.38;21.17;;;6.90;97.40;;;;;;5049945;28;20597;-68
2020/12/06 11:47:51;;;;;;;33.88;21.55;;;6.90;97.40;;;;;;5048342;28;20222;-69
2020/12/06 11:50:18;;;;;;;33.70;21.90;;;6.90;97.40;;;;;;5047994;28;20199;-68
2020/12/06 11:52:44;;;;;;;36.85;22.40;;;6.90;97.40;;;;;;5048491;28;20669;-69
2020/12/06 11:55:11;;;;;;;35.75;22.15;;;7.00;97.40;;;;;;5048433;28;20207;-68
2020/12/06 11:57:37;;;;;;;35.38;21.63;;;6.90;97.30;;;;;;5047276;28;20731;-69
2020/12/06 12:00:05;;;;;;;32.15;20.77;;;6.90;97.30;;;;;;5048001;28;20210;-69
2020/12/06 12:02:38;;;;;;;32.05;21.48;;;6.90;97.30;;;;;;5049131;28;20211;-70
2020/12/06 12:05:04;;;;;;;37.17;22.10;;;6.90;97.30;;;;;;5047410;28;20791;-69
2020/12/06 12:07:32;;;;;;;33.83;20.55;;;6.90;97.20;;;;;;5047535;28;20222;-69
2020/12/06 12:09:58;;;;;;;34.90;21.38;;;6.90;97.30;;;;;;5047262;28;20611;-69
2020/12/06 12:12:25;;;;;;;32.55;21.73;;;6.90;97.30;;;;;;5050880;28;20641;-68
2020/12/06 12:14:51;;;;;;;32.25;21.60;;;6.90;97.30;;;;;;5048341;28;20207;-71
2020/12/06 12:17:17;;;;;;;34.17;22.42;;;6.90;97.30;;;;;;5063086;28;20221;-70
2020/12/06 12:19:43;;;;;;;34.72;22.15;;;6.90;97.30;;;;;;5047261;28;20616;-69
2020/12/06 12:22:10;;;;;;;32.67;21.20;;;6.90;97.30;;;;;;5047711;28;20207;-70
2020/12/06 12:24:37;;;;;;;33.95;21.77;;;6.90;97.20;;;;;;5046168;28;20223;-70
2020/12/06 12:27:03;;;;;;;33.97;21.85;;;6.90;97.30;;;;;;5046343;28;20207;-69
2020/12/06 12:29:30;;;;;;;36.80;23.00;;;6.90;97.30;;;;;;5052446;28;20291;-70
2020/12/06 12:31:56;;;;;;;39.20;23.10;;;6.80;97.30;;;;;;5050758;28;20203;-67
2020/12/06 12:34:22;;;;;;;38.63;23.15;;;6.90;97.40;;;;;;5049148;28;20203;-66
2020/12/06 12:36:49;;;;;;;35.53;23.02;;;6.90;97.30;;;;;;5048397;28;20547;-69
2020/12/06 12:39:15;;;;;;;36.00;22.70;;;6.90;97.40;;;;;;5046542;28;20223;-70